• Join FlightAware (Why Join?)
  • Login
  • US Flag 
03:42PM EDT


 

Airport Tracker/Info


-or-


 

Live Flight TrackerFlight Track Log ✈ N449ND ✈ 24-Feb-2014 ✈ KFPR - KPBI

Flight Track Log - Related Links

Times and Time Zones

All times are in EST time to prevent confusion due to time zone crossing. See the N449ND flight status page for this flight to view local times or setup timezone preferences in your user account.

Time Position Orientation Groundspeed Altitude Reporting Facility
EST Latitude Longitude Course Direction KTS MPH feet Rate Location/Type
10:15PM 27.3411 -80.5285 230° Southwest  Level FlightAware Approximate
10:16PM 27.3192 -80.5577 230° Southwest  Level FlightAware Approximate
10:17PM 27.2958 -80.5840 188° South  Level FlightAware Approximate
10:18PM 27.2622 -80.5896 188° South  Level FlightAware Approximate
10:19PM 27.2286 -80.5952 188° South  Level FlightAware Approximate
10:20PM 27.1951 -80.6008 188° South  Level FlightAware Approximate
10:20PM 27.5003 -80.3569 190° South 100 115 300  Level Miami Center
10:21PM 27.1615 -80.6064 188° South  Level FlightAware Approximate
10:21PM 27.4967 -80.3311 99° East 93 107 6,000  Level Miami Center
10:22PM 27.1279 -80.6120 188° South  Level FlightAware Approximate
10:22PM 27.4931 -80.3100 101° East 84 97 1,500  Level Miami Center
10:23PM 27.0943 -80.6178 190° South  Level FlightAware Approximate
10:23PM 27.4917 -80.2842 93° East 84 97 2,000  Level Miami Center
10:24PM 27.0609 -80.6245 190° South  Level FlightAware Approximate
10:24PM 27.4922 -80.2586 89° East 84 97 2,500  Level Miami Center
10:25PM 27.0274 -80.6312 190° South  Level FlightAware Approximate
10:25PM 27.4733 -80.2650 197° South 57 66 3,000  Level Miami Center
10:26PM 27.4603 -80.2833 231° Southwest 78 90 3,400 360 Climbing Miami Center
10:27PM 27.4392 -80.2967 209° Southwest 93 107 3,800 360 Climbing Miami Center
10:28PM 27.4181 -80.3100 209° Southwest 88 101 4,200 360 Climbing Miami Center
10:29PM 27.3967 -80.3211 205° Southwest 88 101 4,600 360 Climbing Miami Center
10:30PM 27.3756 -80.3322 205° Southwest 88 101 5,000 360 Climbing Miami Center
10:31PM 27.3586 -80.3433 210° Southwest 88 101 5,400 300 Climbing Miami Center
10:32PM 27.3375 -80.3567 209° Southwest 88 101 5,600 300 Climbing Miami Center
10:33PM 27.3142 -80.3725 211° Southwest 88 101 6,000 180 Climbing Miami Center
10:34PM 27.2908 -80.3833 202° Southwest 93 107 6,000  Level Miami Center
10:35PM 27.2600 -80.3708 160° South 105 121 6,000  Level Miami Center
10:36PM 27.2331 -80.3606 161° South 110 127 6,000  Level Miami Center
10:37PM 27.2019 -80.3503 164° South 115 132 6,000  Level Miami Center
10:38PM 27.1667 -80.3375 162° South 120 138 6,000  Level Miami Center
10:39PM 27.1378 -80.3275 163° South 120 138 6,000 -240 Level Miami Center
10:40PM 27.1067 -80.3172 164° South 120 138 5,600 -420 Descending Miami Center
10:41PM 27.0775 -80.3164 179° South 120 138 5,200 -480 Descending Miami Center
10:42PM 27.0400 -80.3153 178° South 120 138 4,700 -540 Descending Miami Center
10:44PM 26.9918 -80.2855 151° Southeast  Level Estimated
10:51PM 26.8110 -80.1741 151° Southeast  Level Estimated
10:52PM 26.7852 -80.1582 151° Southeast  Level Estimated
10:53PM 26.7594 -80.1424 151° Southeast  Level Estimated
10:54PM 26.7335 -80.1265 151° Southeast  Level Estimated
10:55PM 26.7077 -80.1106 151° Southeast  Level Estimated
10:56PM 26.6832 -80.0956 151° Southeast  Level Estimated
10:57PM 26.6832 -80.0956 222° Southwest  Level Estimated
10:58PM 26.6832 -80.0956 222° Southwest  Level Estimated
10:59PM 26.6832 -80.0956 222° Southwest  Level Estimated
11:00PM 26.6832 -80.0956 222° Southwest  Level Estimated
11:01PM 26.6832 -80.0956 222° Southwest  Level Estimated
11:02PM 26.6832 -80.0956 222° Southwest  Level Estimated
11:03PM 26.6832 -80.0956 222° Southwest  Level Estimated
11:04PM 26.6832 -80.0956 222° Southwest  Level Estimated
11:05PM 26.6832 -80.0956 222° Southwest  Level Estimated
11:06PM 26.6832 -80.0956 222° Southwest  Level Estimated
11:07PM 26.6832 -80.0956 222° Southwest  Level Estimated
11:08PM 26.6832 -80.0956 222° Southwest  Level Estimated